Eizo Maru — JD2944 — position and weather

sailwx.info

Track history (hours):
 
Tides and Currents Weather Stations Pressure Air Temp Water Temp Dewpoint Dewpoint Depression Visibility Wind Speed Wind Dir Waves Ship Positions

Eizo Maru

Last reported at 2016-May-24 11:32 UTC. Time now 2016-May-28 22:10 UTC.
Position N 34°22' E 135°01'.

Length 80 m; draft 5.2 m.

Type: Tanker. MMSI: 431000976.

Date/timePositionNaut miles runAvg speedWind from/ knotsBaromVisibWave heightAir tempDewpointWater temp
2016-May-24 11:32N 34°22' E 135°01'1211.8
2016-May-24 10:29N 34°29' E 135°13'1010.9
2016-May-24 09:33N 34°33' E 135°24'1 0.2
2016-May-24 04:33N 34°33' E 135°26'5 4.3
2016-May-24 03:23N 34°32' E 135°20'0 0.0
2016-May-24 02:23N 34°32' E 135°20'911.5
2016-May-24 01:33N 34°26' E 135°11'1513.0
2016-May-24 00:26N 34°15' E 134°59'1213.6
2016-May-23 23:33N 34°03' E 135°01'  
2016-May-20 05:26N 34°08' E 135°04'4 2.1
2016-May-20 03:22N 34°10' E 135°08'0 0.0
2016-May-20 02:28N 34°10' E 135°08'0 0.0
2016-May-20 01:25N 34°10' E 135°08'0 0.1
2016-May-20 00:28N 34°10' E 135°08'0 0.0
2016-May-19 23:28N 34°10' E 135°08'0 0.0
2016-May-19 22:22N 34°10' E 135°08'0 0.0
2016-May-19 21:31N 34°10' E 135°08'0 0.0
2016-May-19 20:28N 34°10' E 135°08'0 0.0
2016-May-19 19:31N 34°10' E 135°08'0 0.0
2016-May-19 18:31N 34°10' E 135°08'0 0.1
2016-May-19 17:31N 34°10' E 135°08'0 0.0
2016-May-19 16:31N 34°10' E 135°08'0 0.0
2016-May-19 15:31N 34°10' E 135°08'0 0.0
2016-May-19 14:28N 34°10' E 135°08'0 0.0
2016-May-19 10:31N 34°10' E 135°08'0 0.0
2016-May-19 09:22N 34°10' E 135°08'0 0.1
2016-May-19 08:33N 34°10' E 135°08'  
Track history (hours):
 
Tides and Currents Weather Stations Pressure Air Temp Water Temp Dewpoint Dewpoint Depression Visibility Wind Speed Wind Dir Waves Ship Positions

Eizo Maru

Last reported at 2016-May-24 11:32 UTC. Time now 2016-May-28 22:10 UTC.
Position N 34°22' E 135°01'.

Length 80 m; draft 5.2 m.

Type: Tanker. MMSI: 431000976.

Date/timePositionNaut miles runAvg speedWind from/ knotsBaromVisibWave heightAir tempDewpointWater temp
2016-May-24 11:32N 34°22' E 135°01'1211.8
2016-May-24 10:29N 34°29' E 135°13'1010.9
2016-May-24 09:33N 34°33' E 135°24'1 0.2
2016-May-24 04:33N 34°33' E 135°26'5 4.3
2016-May-24 03:23N 34°32' E 135°20'0 0.0
2016-May-24 02:23N 34°32' E 135°20'911.5
2016-May-24 01:33N 34°26' E 135°11'1513.0
2016-May-24 00:26N 34°15' E 134°59'1213.6
2016-May-23 23:33N 34°03' E 135°01'  
2016-May-20 05:26N 34°08' E 135°04'4 2.1
2016-May-20 03:22N 34°10' E 135°08'0 0.0
2016-May-20 02:28N 34°10' E 135°08'0 0.0
2016-May-20 01:25N 34°10' E 135°08'0 0.1
2016-May-20 00:28N 34°10' E 135°08'0 0.0
2016-May-19 23:28N 34°10' E 135°08'0 0.0
2016-May-19 22:22N 34°10' E 135°08'0 0.0
2016-May-19 21:31N 34°10' E 135°08'0 0.0
2016-May-19 20:28N 34°10' E 135°08'0 0.0
2016-May-19 19:31N 34°10' E 135°08'0 0.0
2016-May-19 18:31N 34°10' E 135°08'0 0.1
2016-May-19 17:31N 34°10' E 135°08'0 0.0
2016-May-19 16:31N 34°10' E 135°08'0 0.0
2016-May-19 15:31N 34°10' E 135°08'0 0.0
2016-May-19 14:28N 34°10' E 135°08'0 0.0
2016-May-19 10:31N 34°10' E 135°08'0 0.0
2016-May-19 09:22N 34°10' E 135°08'0 0.1
2016-May-19 08:33N 34°10' E 135°08'  

Dump ship's entire track history